Aérodrome :
LOGIN :

S'inscrire | Disclaimer

   EN    FR    IT 

 










Légende :    VFR   VFR Marginal   IFR   IFR Intensif   IFR Très Intensif
Visi : 
Plafond : 
>= 8 km
>= 3000ft
5 à 8 km
1000 à 3000 ft
1500m à 5 km
500 à 1000 ft
800 à 1500m
200 à 500 ft
< 800m
< 200 ft
Symboles :   Orages  Brouillard  Fortes neiges  Fortes précipitations  Vent > 20 kt
SIGMETs :   Divers  Orages  Givrage  Turbulence  Onde Orograph.  Cendres Volcan.







- Altitude de l'aérodrome : 24 ft
- Code IATA : FAO


LPFR - Faro

DERNIER METAR :
  • 262000Z 22003KT 180V270 CAVOK 19/16 Q1013

METARs EXPIRÉS :
  • 261930Z 21003KT CAVOK 20/16 Q1013
  • 261900Z 23004KT 180V240 CAVOK 20/16 Q1013
  • 261830Z 24006KT CAVOK 21/15 Q1014
  • 261800Z 24007KT CAVOK 22/15 Q1014
  • 261730Z 26009KT CAVOK 22/16 Q1014

TAF TAF LPFR
Valide du 26 à 18h jusqu'au 27 à 18h UTC


261700Z 2618/2718 26013KT CAVOK
BECMG 2618/2621 31008KT
BECMG 2622/2701 01010KT
BECMG 2703/2705 VRB03KT
BECMG 2709/2712 20010KT
BECMG 2715/2718 28015KT
Pas de NOTAMs connus pour ce terrain.



MET'MAP, la Météo Aéronautique d'un coup d'oeil ! - Copyright ORBIFLY Décembre 2007 - Disclaimer

ORBIFLY MET'MAP TEAM :

Programmation & Développement : Alexandra Zaïnal
Conception & Développement : Baudouin d'Aumeries
Co-Programmation & Développement : Marc-Olivier Méhu
Soutien technique & logistique : Manuel Goepfert

Contact : metmap@orbifly.com




SOURCES & CREDITS :

   NOAA